sensor_id;sensor_type;location;lat;lon;timestamp;P1;durP1;ratioP1;P2;durP2;ratioP2
71769;SDS011;66386;52.122;5.420;2024-02-21T00:00:02;9.17;;;2.33;;
71769;SDS011;66386;52.122;5.420;2024-02-21T00:02:29;7.53;;;1.98;;
71769;SDS011;66386;52.122;5.420;2024-02-21T00:04:56;7.72;;;2.63;;
71769;SDS011;66386;52.122;5.420;2024-02-21T00:07:22;9.68;;;2.25;;
71769;SDS011;66386;52.122;5.420;2024-02-21T00:09:49;7.70;;;2.33;;
71769;SDS011;66386;52.122;5.420;2024-02-21T00:12:16;8.57;;;2.43;;
71769;SDS011;66386;52.122;5.420;2024-02-21T00:14:42;8.88;;;2.35;;
71769;SDS011;66386;52.122;5.420;2024-02-21T00:17:09;8.18;;;2.35;;
71769;SDS011;66386;52.122;5.420;2024-02-21T00:19:36;9.85;;;2.63;;
71769;SDS011;66386;52.122;5.420;2024-02-21T00:22:03;10.75;;;2.25;;
71769;SDS011;66386;52.122;5.420;2024-02-21T00:24:30;7.80;;;2.03;;
71769;SDS011;66386;52.122;5.420;2024-02-21T00:26:56;6.93;;;2.30;;
71769;SDS011;66386;52.122;5.420;2024-02-21T00:29:23;4.07;;;2.35;;
71769;SDS011;66386;52.122;5.420;2024-02-21T00:31:49;9.77;;;2.40;;
71769;SDS011;66386;52.122;5.420;2024-02-21T00:34:17;8.13;;;2.08;;
71769;SDS011;66386;52.122;5.420;2024-02-21T00:36:43;5.07;;;2.17;;
71769;SDS011;66386;52.122;5.420;2024-02-21T00:39:10;8.13;;;2.15;;
71769;SDS011;66386;52.122;5.420;2024-02-21T00:41:37;9.32;;;2.00;;
71769;SDS011;66386;52.122;5.420;2024-02-21T00:44:03;9.77;;;2.30;;
71769;SDS011;66386;52.122;5.420;2024-02-21T00:46:32;9.65;;;2.13;;
71769;SDS011;66386;52.122;5.420;2024-02-21T00:48:58;7.20;;;1.77;;
71769;SDS011;66386;52.122;5.420;2024-02-21T00:51:25;8.65;;;1.98;;
71769;SDS011;66386;52.122;5.420;2024-02-21T00:53:51;7.63;;;1.70;;
71769;SDS011;66386;52.122;5.420;2024-02-21T00:56:18;11.43;;;2.00;;
71769;SDS011;66386;52.122;5.420;2024-02-21T00:58:44;8.73;;;1.48;;
71769;SDS011;66386;52.122;5.420;2024-02-21T01:01:11;7.97;;;1.70;;
71769;SDS011;66386;52.122;5.420;2024-02-21T01:03:39;9.25;;;1.98;;
71769;SDS011;66386;52.122;5.420;2024-02-21T01:06:05;6.10;;;1.95;;
71769;SDS011;66386;52.122;5.420;2024-02-21T01:08:33;7.15;;;1.60;;
71769;SDS011;66386;52.122;5.420;2024-02-21T01:10:59;5.57;;;1.55;;
71769;SDS011;66386;52.122;5.420;2024-02-21T01:13:26;11.97;;;1.80;;
71769;SDS011;66386;52.122;5.420;2024-02-21T01:15:52;8.63;;;2.08;;
71769;SDS011;66386;52.122;5.420;2024-02-21T01:18:20;7.30;;;2.00;;
71769;SDS011;66386;52.122;5.420;2024-02-21T01:20:46;8.82;;;1.42;;
71769;SDS011;66386;52.122;5.420;2024-02-21T01:23:13;8.00;;;2.00;;
71769;SDS011;66386;52.122;5.420;2024-02-21T01:25:40;6.13;;;1.77;;
71769;SDS011;66386;52.122;5.420;2024-02-21T01:28:06;9.65;;;1.90;;
71769;SDS011;66386;52.122;5.420;2024-02-21T01:30:33;8.50;;;1.98;;
71769;SDS011;66386;52.122;5.420;2024-02-21T01:32:59;12.75;;;2.30;;
71769;SDS011;66386;52.122;5.420;2024-02-21T01:35:26;7.93;;;2.38;;
71769;SDS011;66386;52.122;5.420;2024-02-21T01:37:52;10.40;;;3.17;;
71769;SDS011;66386;52.122;5.420;2024-02-21T01:40:19;4.57;;;2.00;;
71769;SDS011;66386;52.122;5.420;2024-02-21T01:42:45;9.27;;;2.42;;
71769;SDS011;66386;52.122;5.420;2024-02-21T01:45:14;10.93;;;2.92;;
71769;SDS011;66386;52.122;5.420;2024-02-21T01:47:44;5.15;;;2.10;;
71769;SDS011;66386;52.122;5.420;2024-02-21T01:50:10;7.63;;;2.93;;
71769;SDS011;66386;52.122;5.420;2024-02-21T01:52:39;8.88;;;2.90;;
71769;SDS011;66386;52.122;5.420;2024-02-21T01:55:06;10.65;;;3.13;;
71769;SDS011;66386;52.122;5.420;2024-02-21T01:57:34;13.80;;;3.00;;
71769;SDS011;66386;52.122;5.420;2024-02-21T02:00:01;7.53;;;2.67;;
71769;SDS011;66386;52.122;5.420;2024-02-21T02:02:27;6.50;;;2.57;;
71769;SDS011;66386;52.122;5.420;2024-02-21T02:04:55;11.35;;;3.03;;
71769;SDS011;66386;52.122;5.420;2024-02-21T02:07:22;6.50;;;3.00;;
71769;SDS011;66386;52.122;5.420;2024-02-21T02:09:49;8.85;;;2.58;;
71769;SDS011;66386;52.122;5.420;2024-02-21T02:12:16;6.50;;;2.58;;
71769;SDS011;66386;52.122;5.420;2024-02-21T02:14:42;7.00;;;3.10;;
71769;SDS011;66386;52.122;5.420;2024-02-21T02:17:09;7.28;;;3.67;;
71769;SDS011;66386;52.122;5.420;2024-02-21T02:19:36;12.05;;;3.40;;
71769;SDS011;66386;52.122;5.420;2024-02-21T02:22:09;13.48;;;3.38;;
71769;SDS011;66386;52.122;5.420;2024-02-21T02:24:45;12.52;;;3.05;;
71769;SDS011;66386;52.122;5.420;2024-02-21T02:27:12;10.27;;;3.10;;
71769;SDS011;66386;52.122;5.420;2024-02-21T02:29:38;10.07;;;3.00;;
71769;SDS011;66386;52.122;5.420;2024-02-21T02:32:05;7.47;;;3.47;;
71769;SDS011;66386;52.122;5.420;2024-02-21T02:34:32;10.73;;;3.20;;
71769;SDS011;66386;52.122;5.420;2024-02-21T02:36:58;7.38;;;3.08;;
71769;SDS011;66386;52.122;5.420;2024-02-21T02:39:25;9.83;;;3.13;;
71769;SDS011;66386;52.122;5.420;2024-02-21T02:41:51;10.48;;;3.83;;
71769;SDS011;66386;52.122;5.420;2024-02-21T02:44:18;11.02;;;3.22;;
71769;SDS011;66386;52.122;5.420;2024-02-21T02:46:44;6.85;;;3.35;;
71769;SDS011;66386;52.122;5.420;2024-02-21T02:49:11;7.90;;;3.00;;
71769;SDS011;66386;52.122;5.420;2024-02-21T02:51:41;7.50;;;3.33;;
71769;SDS011;66386;52.122;5.420;2024-02-21T02:54:10;8.52;;;2.47;;
71769;SDS011;66386;52.122;5.420;2024-02-21T02:56:37;6.70;;;2.95;;
71769;SDS011;66386;52.122;5.420;2024-02-21T02:59:04;10.75;;;2.80;;
71769;SDS011;66386;52.122;5.420;2024-02-21T03:01:33;5.70;;;3.08;;
71769;SDS011;66386;52.122;5.420;2024-02-21T03:04:00;11.93;;;3.93;;
71769;SDS011;66386;52.122;5.420;2024-02-21T03:06:27;12.52;;;2.92;;
71769;SDS011;66386;52.122;5.420;2024-02-21T03:08:53;12.30;;;2.88;;
71769;SDS011;66386;52.122;5.420;2024-02-21T03:11:20;8.90;;;2.50;;
71769;SDS011;66386;52.122;5.420;2024-02-21T03:13:55;9.80;;;2.78;;
71769;SDS011;66386;52.122;5.420;2024-02-21T03:16:23;8.77;;;2.90;;
71769;SDS011;66386;52.122;5.420;2024-02-21T03:18:49;9.40;;;2.67;;
71769;SDS011;66386;52.122;5.420;2024-02-21T03:21:16;7.63;;;2.92;;
71769;SDS011;66386;52.122;5.420;2024-02-21T03:23:42;8.50;;;3.10;;
71769;SDS011;66386;52.122;5.420;2024-02-21T03:26:09;8.60;;;3.05;;
71769;SDS011;66386;52.122;5.420;2024-02-21T03:28:35;10.27;;;3.13;;
71769;SDS011;66386;52.122;5.420;2024-02-21T03:31:02;13.73;;;3.95;;
71769;SDS011;66386;52.122;5.420;2024-02-21T03:33:29;13.50;;;3.00;;
71769;SDS011;66386;52.122;5.420;2024-02-21T03:35:55;8.63;;;3.13;;
71769;SDS011;66386;52.122;5.420;2024-02-21T03:38:22;10.55;;;3.25;;
71769;SDS011;66386;52.122;5.420;2024-02-21T03:40:48;12.30;;;3.33;;
71769;SDS011;66386;52.122;5.420;2024-02-21T03:43:15;11.13;;;3.03;;
71769;SDS011;66386;52.122;5.420;2024-02-21T03:45:41;13.88;;;3.88;;
71769;SDS011;66386;52.122;5.420;2024-02-21T03:48:08;11.98;;;3.78;;
71769;SDS011;66386;52.122;5.420;2024-02-21T03:50:34;7.93;;;2.85;;
71769;SDS011;66386;52.122;5.420;2024-02-21T03:53:01;8.27;;;3.90;;
71769;SDS011;66386;52.122;5.420;2024-02-21T03:55:28;8.82;;;3.55;;
71769;SDS011;66386;52.122;5.420;2024-02-21T03:57:54;6.70;;;2.97;;
71769;SDS011;66386;52.122;5.420;2024-02-21T04:00:21;6.90;;;2.88;;
71769;SDS011;66386;52.122;5.420;2024-02-21T04:02:47;7.95;;;3.08;;
71769;SDS011;66386;52.122;5.420;2024-02-21T04:05:15;11.00;;;3.37;;
71769;SDS011;66386;52.122;5.420;2024-02-21T04:07:42;7.03;;;3.08;;
71769;SDS011;66386;52.122;5.420;2024-02-21T04:10:09;8.35;;;3.35;;
71769;SDS011;66386;52.122;5.420;2024-02-21T04:12:35;6.20;;;3.03;;
71769;SDS011;66386;52.122;5.420;2024-02-21T04:15:02;7.65;;;3.20;;
71769;SDS011;66386;52.122;5.420;2024-02-21T04:17:29;8.07;;;3.03;;
71769;SDS011;66386;52.122;5.420;2024-02-21T04:20:01;8.07;;;3.05;;
71769;SDS011;66386;52.122;5.420;2024-02-21T04:22:35;8.15;;;2.83;;
71769;SDS011;66386;52.122;5.420;2024-02-21T04:25:01;8.52;;;3.15;;
71769;SDS011;66386;52.122;5.420;2024-02-21T04:27:28;8.80;;;2.88;;
71769;SDS011;66386;52.122;5.420;2024-02-21T04:29:55;7.70;;;3.00;;
71769;SDS011;66386;52.122;5.420;2024-02-21T04:32:21;8.43;;;3.30;;
71769;SDS011;66386;52.122;5.420;2024-02-21T04:34:48;8.65;;;3.20;;
71769;SDS011;66386;52.122;5.420;2024-02-21T04:37:15;6.45;;;2.75;;
71769;SDS011;66386;52.122;5.420;2024-02-21T04:39:41;7.15;;;3.00;;
71769;SDS011;66386;52.122;5.420;2024-02-21T04:42:08;10.43;;;3.37;;
71769;SDS011;66386;52.122;5.420;2024-02-21T04:44:34;7.45;;;3.13;;
71769;SDS011;66386;52.122;5.420;2024-02-21T04:47:00;11.32;;;3.17;;
71769;SDS011;66386;52.122;5.420;2024-02-21T04:49:27;10.38;;;3.45;;
71769;SDS011;66386;52.122;5.420;2024-02-21T04:51:54;8.63;;;3.00;;
71769;SDS011;66386;52.122;5.420;2024-02-21T04:54:20;7.93;;;3.77;;
71769;SDS011;66386;52.122;5.420;2024-02-21T04:56:47;9.65;;;3.42;;
71769;SDS011;66386;52.122;5.420;2024-02-21T04:59:16;6.78;;;3.17;;
71769;SDS011;66386;52.122;5.420;2024-02-21T05:01:43;8.43;;;3.42;;
71769;SDS011;66386;52.122;5.420;2024-02-21T05:04:10;10.00;;;3.25;;
71769;SDS011;66386;52.122;5.420;2024-02-21T05:06:37;8.90;;;3.17;;
71769;SDS011;66386;52.122;5.420;2024-02-21T05:09:05;5.10;;;3.10;;
71769;SDS011;66386;52.122;5.420;2024-02-21T05:11:32;7.45;;;3.53;;
71769;SDS011;66386;52.122;5.420;2024-02-21T05:13:59;8.95;;;3.70;;
71769;SDS011;66386;52.122;5.420;2024-02-21T05:16:25;4.68;;;3.00;;
71769;SDS011;66386;52.122;5.420;2024-02-21T05:18:52;9.67;;;3.13;;
71769;SDS011;66386;52.122;5.420;2024-02-21T05:21:19;6.53;;;3.50;;
71769;SDS011;66386;52.122;5.420;2024-02-21T05:23:45;5.82;;;3.50;;
71769;SDS011;66386;52.122;5.420;2024-02-21T05:26:12;10.57;;;3.63;;
71769;SDS011;66386;52.122;5.420;2024-02-21T05:28:46;6.13;;;3.40;;
71769;SDS011;66386;52.122;5.420;2024-02-21T05:31:13;5.77;;;4.20;;
71769;SDS011;66386;52.122;5.420;2024-02-21T05:33:40;8.80;;;3.38;;
71769;SDS011;66386;52.122;5.420;2024-02-21T05:36:07;8.43;;;3.65;;
71769;SDS011;66386;52.122;5.420;2024-02-21T05:38:33;6.35;;;3.42;;
71769;SDS011;66386;52.122;5.420;2024-02-21T05:41:00;5.22;;;3.42;;
71769;SDS011;66386;52.122;5.420;2024-02-21T05:43:26;9.53;;;3.63;;
71769;SDS011;66386;52.122;5.420;2024-02-21T05:45:53;6.85;;;3.45;;
71769;SDS011;66386;52.122;5.420;2024-02-21T05:48:20;9.25;;;4.15;;
71769;SDS011;66386;52.122;5.420;2024-02-21T05:50:48;6.28;;;3.25;;
71769;SDS011;66386;52.122;5.420;2024-02-21T05:53:15;10.52;;;3.92;;
71769;SDS011;66386;52.122;5.420;2024-02-21T05:55:42;6.23;;;3.97;;
71769;SDS011;66386;52.122;5.420;2024-02-21T05:58:08;10.25;;;4.10;;
71769;SDS011;66386;52.122;5.420;2024-02-21T06:00:40;7.28;;;4.15;;
71769;SDS011;66386;52.122;5.420;2024-02-21T06:03:06;6.80;;;4.03;;
71769;SDS011;66386;52.122;5.420;2024-02-21T06:05:36;10.95;;;4.72;;
71769;SDS011;66386;52.122;5.420;2024-02-21T06:08:04;8.70;;;4.50;;
71769;SDS011;66386;52.122;5.420;2024-02-21T06:10:31;9.07;;;4.65;;
71769;SDS011;66386;52.122;5.420;2024-02-21T06:12:58;7.65;;;4.22;;
71769;SDS011;66386;52.122;5.420;2024-02-21T06:15:24;12.23;;;4.35;;
71769;SDS011;66386;52.122;5.420;2024-02-21T06:17:51;8.18;;;4.53;;
71769;SDS011;66386;52.122;5.420;2024-02-21T06:20:17;9.33;;;4.20;;
71769;SDS011;66386;52.122;5.420;2024-02-21T06:22:44;5.57;;;4.05;;
71769;SDS011;66386;52.122;5.420;2024-02-21T06:25:10;10.80;;;4.95;;
71769;SDS011;66386;52.122;5.420;2024-02-21T06:27:37;11.55;;;4.45;;
71769;SDS011;66386;52.122;5.420;2024-02-21T06:30:03;10.20;;;4.80;;
71769;SDS011;66386;52.122;5.420;2024-02-21T06:32:30;10.97;;;5.33;;
71769;SDS011;66386;52.122;5.420;2024-02-21T06:34:57;11.77;;;5.50;;
71769;SDS011;66386;52.122;5.420;2024-02-21T06:37:23;10.13;;;5.80;;
71769;SDS011;66386;52.122;5.420;2024-02-21T06:39:51;13.80;;;6.18;;
71769;SDS011;66386;52.122;5.420;2024-02-21T06:42:17;13.98;;;6.53;;
71769;SDS011;66386;52.122;5.420;2024-02-21T06:44:44;13.50;;;6.53;;
71769;SDS011;66386;52.122;5.420;2024-02-21T06:47:10;16.17;;;6.85;;
71769;SDS011;66386;52.122;5.420;2024-02-21T06:49:37;12.73;;;6.68;;
71769;SDS011;66386;52.122;5.420;2024-02-21T06:52:04;10.85;;;6.13;;
71769;SDS011;66386;52.122;5.420;2024-02-21T06:54:31;18.20;;;7.53;;
71769;SDS011;66386;52.122;5.420;2024-02-21T06:56:58;20.37;;;7.10;;
71769;SDS011;66386;52.122;5.420;2024-02-21T06:59:24;12.43;;;6.90;;
71769;SDS011;66386;52.122;5.420;2024-02-21T07:01:53;17.92;;;7.40;;
71769;SDS011;66386;52.122;5.420;2024-02-21T07:04:21;15.60;;;7.68;;
71769;SDS011;66386;52.122;5.420;2024-02-21T07:06:48;17.55;;;8.05;;
71769;SDS011;66386;52.122;5.420;2024-02-21T07:09:15;16.53;;;7.37;;
71769;SDS011;66386;52.122;5.420;2024-02-21T07:11:42;16.13;;;7.82;;
71769;SDS011;66386;52.122;5.420;2024-02-21T07:14:08;18.90;;;7.25;;
71769;SDS011;66386;52.122;5.420;2024-02-21T07:16:35;16.65;;;8.38;;
71769;SDS011;66386;52.122;5.420;2024-02-21T07:19:02;17.45;;;7.80;;
71769;SDS011;66386;52.122;5.420;2024-02-21T07:21:29;17.03;;;7.23;;
71769;SDS011;66386;52.122;5.420;2024-02-21T07:23:55;11.38;;;6.25;;
71769;SDS011;66386;52.122;5.420;2024-02-21T07:26:22;19.73;;;7.30;;
71769;SDS011;66386;52.122;5.420;2024-02-21T07:28:48;13.75;;;6.10;;
71769;SDS011;66386;52.122;5.420;2024-02-21T07:31:15;15.63;;;6.45;;
71769;SDS011;66386;52.122;5.420;2024-02-21T07:33:42;18.33;;;6.23;;
71769;SDS011;66386;52.122;5.420;2024-02-21T07:36:10;15.57;;;5.97;;
71769;SDS011;66386;52.122;5.420;2024-02-21T07:38:37;11.45;;;6.22;;
71769;SDS011;66386;52.122;5.420;2024-02-21T07:41:04;9.02;;;5.22;;
71769;SDS011;66386;52.122;5.420;2024-02-21T07:43:30;13.40;;;5.60;;
71769;SDS011;66386;52.122;5.420;2024-02-21T07:45:57;17.33;;;5.53;;
71769;SDS011;66386;52.122;5.420;2024-02-21T07:48:24;10.95;;;5.07;;
71769;SDS011;66386;52.122;5.420;2024-02-21T07:50:53;18.33;;;5.97;;
71769;SDS011;66386;52.122;5.420;2024-02-21T07:53:19;9.27;;;5.28;;
71769;SDS011;66386;52.122;5.420;2024-02-21T07:55:46;13.13;;;5.60;;
71769;SDS011;66386;52.122;5.420;2024-02-21T07:58:13;13.53;;;5.33;;
71769;SDS011;66386;52.122;5.420;2024-02-21T08:00:39;10.88;;;5.20;;
71769;SDS011;66386;52.122;5.420;2024-02-21T08:03:06;13.07;;;5.40;;
71769;SDS011;66386;52.122;5.420;2024-02-21T08:05:34;17.70;;;5.47;;
71769;SDS011;66386;52.122;5.420;2024-02-21T08:08:02;13.70;;;5.45;;
71769;SDS011;66386;52.122;5.420;2024-02-21T08:10:29;13.10;;;5.97;;
71769;SDS011;66386;52.122;5.420;2024-02-21T08:12:56;16.85;;;5.55;;
71769;SDS011;66386;52.122;5.420;2024-02-21T08:15:22;9.85;;;4.78;;
71769;SDS011;66386;52.122;5.420;2024-02-21T08:17:51;13.20;;;5.32;;
71769;SDS011;66386;52.122;5.420;2024-02-21T08:20:18;14.23;;;5.82;;
71769;SDS011;66386;52.122;5.420;2024-02-21T08:22:44;12.27;;;5.63;;
71769;SDS011;66386;52.122;5.420;2024-02-21T08:25:11;13.40;;;5.45;;
71769;SDS011;66386;52.122;5.420;2024-02-21T08:27:37;11.40;;;6.20;;
71769;SDS011;66386;52.122;5.420;2024-02-21T08:30:04;13.23;;;5.55;;
71769;SDS011;66386;52.122;5.420;2024-02-21T08:32:34;10.57;;;5.45;;
71769;SDS011;66386;52.122;5.420;2024-02-21T08:35:02;10.10;;;5.40;;
71769;SDS011;66386;52.122;5.420;2024-02-21T08:37:29;11.52;;;5.55;;
71769;SDS011;66386;52.122;5.420;2024-02-21T08:39:55;13.43;;;5.60;;
71769;SDS011;66386;52.122;5.420;2024-02-21T08:42:22;13.43;;;6.00;;
71769;SDS011;66386;52.122;5.420;2024-02-21T08:44:49;13.35;;;6.53;;
71769;SDS011;66386;52.122;5.420;2024-02-21T08:47:16;11.40;;;5.80;;
71769;SDS011;66386;52.122;5.420;2024-02-21T08:49:42;13.75;;;6.38;;
71769;SDS011;66386;52.122;5.420;2024-02-21T08:52:09;14.07;;;6.47;;
71769;SDS011;66386;52.122;5.420;2024-02-21T08:54:35;12.40;;;6.38;;
71769;SDS011;66386;52.122;5.420;2024-02-21T08:57:02;10.23;;;5.75;;
71769;SDS011;66386;52.122;5.420;2024-02-21T08:59:29;11.07;;;6.07;;
71769;SDS011;66386;52.122;5.420;2024-02-21T09:01:56;13.80;;;5.57;;
71769;SDS011;66386;52.122;5.420;2024-02-21T09:04:22;12.13;;;5.40;;
71769;SDS011;66386;52.122;5.420;2024-02-21T09:06:49;9.48;;;5.90;;
71769;SDS011;66386;52.122;5.420;2024-02-21T09:09:16;12.77;;;5.18;;
71769;SDS011;66386;52.122;5.420;2024-02-21T09:11:43;11.17;;;4.97;;
71769;SDS011;66386;52.122;5.420;2024-02-21T09:14:09;12.18;;;5.90;;
71769;SDS011;66386;52.122;5.420;2024-02-21T09:16:36;10.50;;;5.18;;
71769;SDS011;66386;52.122;5.420;2024-02-21T09:19:03;8.48;;;4.80;;
71769;SDS011;66386;52.122;5.420;2024-02-21T09:21:30;13.18;;;5.13;;
71769;SDS011;66386;52.122;5.420;2024-02-21T09:23:56;10.23;;;5.10;;
71769;SDS011;66386;52.122;5.420;2024-02-21T09:26:25;8.70;;;4.70;;
71769;SDS011;66386;52.122;5.420;2024-02-21T09:28:52;10.35;;;4.60;;
71769;SDS011;66386;52.122;5.420;2024-02-21T09:31:19;10.82;;;4.30;;
71769;SDS011;66386;52.122;5.420;2024-02-21T09:33:46;11.23;;;5.18;;
71769;SDS011;66386;52.122;5.420;2024-02-21T09:36:12;11.70;;;4.90;;
71769;SDS011;66386;52.122;5.420;2024-02-21T09:38:39;7.20;;;3.95;;
71769;SDS011;66386;52.122;5.420;2024-02-21T09:43:40;10.63;;;4.50;;
71769;SDS011;66386;52.122;5.420;2024-02-21T09:46:08;7.80;;;4.38;;
71769;SDS011;66386;52.122;5.420;2024-02-21T09:48:46;11.57;;;4.10;;
71769;SDS011;66386;52.122;5.420;2024-02-21T09:51:24;9.50;;;4.20;;
71769;SDS011;66386;52.122;5.420;2024-02-21T09:53:56;9.23;;;4.13;;
71769;SDS011;66386;52.122;5.420;2024-02-21T09:56:36;6.72;;;4.35;;
71769;SDS011;66386;52.122;5.420;2024-02-21T09:59:03;6.90;;;4.25;;
71769;SDS011;66386;52.122;5.420;2024-02-21T10:01:31;9.07;;;4.33;;
71769;SDS011;66386;52.122;5.420;2024-02-21T10:04:00;9.05;;;3.92;;
71769;SDS011;66386;52.122;5.420;2024-02-21T10:06:29;9.65;;;3.83;;
71769;SDS011;66386;52.122;5.420;2024-02-21T10:08:56;9.23;;;4.18;;
71769;SDS011;66386;52.122;5.420;2024-02-21T10:11:26;12.20;;;4.07;;
71769;SDS011;66386;52.122;5.420;2024-02-21T10:14:05;8.27;;;4.13;;
71769;SDS011;66386;52.122;5.420;2024-02-21T10:16:35;5.70;;;3.63;;
71769;SDS011;66386;52.122;5.420;2024-02-21T10:19:03;6.15;;;3.63;;
71769;SDS011;66386;52.122;5.420;2024-02-21T10:21:30;6.18;;;3.85;;
71769;SDS011;66386;52.122;5.420;2024-02-21T10:23:57;5.38;;;3.03;;
71769;SDS011;66386;52.122;5.420;2024-02-21T10:26:24;6.40;;;3.53;;
71769;SDS011;66386;52.122;5.420;2024-02-21T10:28:50;8.55;;;3.10;;
71769;SDS011;66386;52.122;5.420;2024-02-21T10:31:22;6.18;;;3.30;;
71769;SDS011;66386;52.122;5.420;2024-02-21T10:33:57;6.03;;;2.97;;
71769;SDS011;66386;52.122;5.420;2024-02-21T10:36:25;5.47;;;2.83;;
71769;SDS011;66386;52.122;5.420;2024-02-21T10:38:52;4.43;;;2.90;;
71769;SDS011;66386;52.122;5.420;2024-02-21T10:41:20;5.97;;;2.92;;
71769;SDS011;66386;52.122;5.420;2024-02-21T10:43:51;4.25;;;2.95;;
71769;SDS011;66386;52.122;5.420;2024-02-21T10:46:23;5.53;;;2.70;;
71769;SDS011;66386;52.122;5.420;2024-02-21T10:48:59;6.97;;;2.40;;
71769;SDS011;66386;52.122;5.420;2024-02-21T10:51:33;4.87;;;2.47;;
71769;SDS011;66386;52.122;5.420;2024-02-21T10:56:48;3.65;;;2.42;;
71769;SDS011;66386;52.122;5.420;2024-02-21T10:59:16;5.88;;;2.72;;
71769;SDS011;66386;52.122;5.420;2024-02-21T11:01:43;4.53;;;3.05;;
71769;SDS011;66386;52.122;5.420;2024-02-21T11:04:10;5.03;;;2.90;;
71769;SDS011;66386;52.122;5.420;2024-02-21T11:06:39;4.45;;;2.55;;
71769;SDS011;66386;52.122;5.420;2024-02-21T11:09:08;4.45;;;3.08;;
71769;SDS011;66386;52.122;5.420;2024-02-21T11:11:40;4.57;;;2.72;;
71769;SDS011;66386;52.122;5.420;2024-02-21T11:14:18;5.72;;;3.42;;
71769;SDS011;66386;52.122;5.420;2024-02-21T11:16:46;3.73;;;2.73;;
71769;SDS011;66386;52.122;5.420;2024-02-21T11:19:20;9.85;;;3.25;;
71769;SDS011;66386;52.122;5.420;2024-02-21T11:21:49;8.25;;;3.65;;
71769;SDS011;66386;52.122;5.420;2024-02-21T11:24:29;5.30;;;3.90;;
71769;SDS011;66386;52.122;5.420;2024-02-21T11:27:13;8.15;;;3.72;;
71769;SDS011;66386;52.122;5.420;2024-02-21T11:29:40;5.93;;;3.53;;
71769;SDS011;66386;52.122;5.420;2024-02-21T11:32:17;6.13;;;3.38;;
71769;SDS011;66386;52.122;5.420;2024-02-21T11:34:58;4.05;;;2.88;;
71769;SDS011;66386;52.122;5.420;2024-02-21T11:37:29;5.53;;;3.50;;
71769;SDS011;66386;52.122;5.420;2024-02-21T11:40:00;4.57;;;3.45;;
71769;SDS011;66386;52.122;5.420;2024-02-21T11:42:30;5.00;;;3.40;;
71769;SDS011;66386;52.122;5.420;2024-02-21T11:44:57;7.10;;;3.85;;
71769;SDS011;66386;52.122;5.420;2024-02-21T11:47:24;4.60;;;3.63;;
71769;SDS011;66386;52.122;5.420;2024-02-21T11:49:51;7.07;;;3.60;;
71769;SDS011;66386;52.122;5.420;2024-02-21T11:52:29;5.18;;;3.70;;
71769;SDS011;66386;52.122;5.420;2024-02-21T11:54:56;6.40;;;4.10;;
71769;SDS011;66386;52.122;5.420;2024-02-21T11:57:31;7.50;;;4.10;;
71769;SDS011;66386;52.122;5.420;2024-02-21T11:59:57;6.55;;;3.72;;
71769;SDS011;66386;52.122;5.420;2024-02-21T12:02:28;5.60;;;3.75;;
71769;SDS011;66386;52.122;5.420;2024-02-21T12:04:55;8.07;;;3.90;;
71769;SDS011;66386;52.122;5.420;2024-02-21T12:07:22;6.77;;;3.30;;
71769;SDS011;66386;52.122;5.420;2024-02-21T12:09:50;6.05;;;4.05;;
71769;SDS011;66386;52.122;5.420;2024-02-21T12:12:19;7.15;;;4.00;;
71769;SDS011;66386;52.122;5.420;2024-02-21T12:14:46;6.53;;;4.00;;
71769;SDS011;66386;52.122;5.420;2024-02-21T12:17:13;6.65;;;3.85;;
71769;SDS011;66386;52.122;5.420;2024-02-21T12:19:39;9.07;;;4.20;;
71769;SDS011;66386;52.122;5.420;2024-02-21T12:22:06;7.45;;;3.75;;
71769;SDS011;66386;52.122;5.420;2024-02-21T12:24:35;6.68;;;3.88;;
71769;SDS011;66386;52.122;5.420;2024-02-21T12:27:02;7.90;;;3.63;;
71769;SDS011;66386;52.122;5.420;2024-02-21T12:29:30;6.07;;;4.03;;
71769;SDS011;66386;52.122;5.420;2024-02-21T12:31:56;9.07;;;4.20;;
71769;SDS011;66386;52.122;5.420;2024-02-21T12:34:23;6.45;;;3.20;;
71769;SDS011;66386;52.122;5.420;2024-02-21T12:37:10;5.72;;;3.10;;
71769;SDS011;66386;52.122;5.420;2024-02-21T12:39:39;5.18;;;3.20;;
71769;SDS011;66386;52.122;5.420;2024-02-21T12:42:05;5.43;;;3.40;;
71769;SDS011;66386;52.122;5.420;2024-02-21T12:44:32;6.87;;;3.10;;
71769;SDS011;66386;52.122;5.420;2024-02-21T12:46:59;5.65;;;3.45;;
71769;SDS011;66386;52.122;5.420;2024-02-21T12:49:25;5.13;;;3.25;;
71769;SDS011;66386;52.122;5.420;2024-02-21T12:51:55;4.65;;;2.60;;
71769;SDS011;66386;52.122;5.420;2024-02-21T12:54:22;6.65;;;3.30;;
71769;SDS011;66386;52.122;5.420;2024-02-21T12:56:49;6.07;;;2.80;;
71769;SDS011;66386;52.122;5.420;2024-02-21T12:59:16;5.40;;;3.20;;
71769;SDS011;66386;52.122;5.420;2024-02-21T13:01:43;6.75;;;3.50;;
71769;SDS011;66386;52.122;5.420;2024-02-21T13:04:09;6.43;;;3.15;;
71769;SDS011;66386;52.122;5.420;2024-02-21T13:06:38;6.35;;;3.38;;
71769;SDS011;66386;52.122;5.420;2024-02-21T13:09:05;4.73;;;2.80;;
71769;SDS011;66386;52.122;5.420;2024-02-21T13:11:34;7.63;;;3.03;;
71769;SDS011;66386;52.122;5.420;2024-02-21T13:14:01;5.70;;;2.90;;
71769;SDS011;66386;52.122;5.420;2024-02-21T13:16:28;4.22;;;2.53;;
71769;SDS011;66386;52.122;5.420;2024-02-21T13:18:55;7.03;;;3.33;;
71769;SDS011;66386;52.122;5.420;2024-02-21T13:21:21;5.23;;;2.37;;
71769;SDS011;66386;52.122;5.420;2024-02-21T13:23:48;6.43;;;2.70;;
71769;SDS011;66386;52.122;5.420;2024-02-21T13:26:14;3.78;;;2.30;;
71769;SDS011;66386;52.122;5.420;2024-02-21T13:28:41;5.43;;;2.63;;
71769;SDS011;66386;52.122;5.420;2024-02-21T13:31:11;5.97;;;2.38;;
71769;SDS011;66386;52.122;5.420;2024-02-21T13:33:37;7.13;;;2.33;;
71769;SDS011;66386;52.122;5.420;2024-02-21T13:36:04;3.42;;;2.53;;
71769;SDS011;66386;52.122;5.420;2024-02-21T13:38:31;6.28;;;2.50;;
71769;SDS011;66386;52.122;5.420;2024-02-21T13:40:57;4.35;;;2.50;;
71769;SDS011;66386;52.122;5.420;2024-02-21T13:43:27;6.63;;;2.10;;
71769;SDS011;66386;52.122;5.420;2024-02-21T13:45:57;6.73;;;2.10;;
71769;SDS011;66386;52.122;5.420;2024-02-21T13:48:25;9.27;;;2.72;;
71769;SDS011;66386;52.122;5.420;2024-02-21T13:50:53;5.32;;;2.10;;
71769;SDS011;66386;52.122;5.420;2024-02-21T13:53:20;5.00;;;2.35;;
71769;SDS011;66386;52.122;5.420;2024-02-21T13:55:47;7.38;;;2.30;;
71769;SDS011;66386;52.122;5.420;2024-02-21T13:58:15;5.53;;;2.20;;
71769;SDS011;66386;52.122;5.420;2024-02-21T14:00:42;4.35;;;2.05;;
71769;SDS011;66386;52.122;5.420;2024-02-21T14:03:08;7.20;;;2.50;;
71769;SDS011;66386;52.122;5.420;2024-02-21T14:05:36;5.05;;;2.33;;
71769;SDS011;66386;52.122;5.420;2024-02-21T14:08:06;4.95;;;2.20;;
71769;SDS011;66386;52.122;5.420;2024-02-21T14:10:33;4.67;;;1.93;;
71769;SDS011;66386;52.122;5.420;2024-02-21T14:13:00;5.40;;;2.22;;
71769;SDS011;66386;52.122;5.420;2024-02-21T14:15:27;5.60;;;1.83;;
71769;SDS011;66386;52.122;5.420;2024-02-21T14:17:53;5.70;;;1.90;;
71769;SDS011;66386;52.122;5.420;2024-02-21T14:20:21;6.15;;;2.00;;
71769;SDS011;66386;52.122;5.420;2024-02-21T14:22:48;5.43;;;1.77;;
71769;SDS011;66386;52.122;5.420;2024-02-21T14:25:15;6.25;;;2.10;;
71769;SDS011;66386;52.122;5.420;2024-02-21T14:27:42;4.40;;;2.50;;
71769;SDS011;66386;52.122;5.420;2024-02-21T14:30:10;4.85;;;1.88;;
71769;SDS011;66386;52.122;5.420;2024-02-21T14:32:37;4.22;;;1.98;;
71769;SDS011;66386;52.122;5.420;2024-02-21T14:35:04;6.80;;;1.73;;
71769;SDS011;66386;52.122;5.420;2024-02-21T14:37:32;4.85;;;2.03;;
71769;SDS011;66386;52.122;5.420;2024-02-21T14:39:59;9.30;;;1.95;;
71769;SDS011;66386;52.122;5.420;2024-02-21T14:42:27;2.95;;;2.08;;
71769;SDS011;66386;52.122;5.420;2024-02-21T14:44:53;6.35;;;2.35;;
71769;SDS011;66386;52.122;5.420;2024-02-21T14:47:20;7.10;;;2.30;;
71769;SDS011;66386;52.122;5.420;2024-02-21T14:49:46;4.75;;;1.95;;